Time;durP1;ratioP1;P1;durP2;ratioP2;P2;SDS_P1;SDS_P2;PMS_P1;PMS_P2;Temp;Humidity;BMP_temperature;BMP_pressure;BME280_temperature;BME280_humidity;BME280_pressure;Samples;Min_cycle;Max_cycle;Signal;HPM_P1;HPM_P2
2022/08/05 00:01:17;;;;;;;;;;;28.60;94.00;;;;;;5127058;28;19960;-59
2022/08/05 00:03:43;;;;;;;;;;;28.70;94.20;;;;;;5127259;28;19957;-57
2022/08/05 00:06:10;;;;;;;;;;;28.60;94.30;;;;;;5127683;28;19935;-59
2022/08/05 00:08:36;;;;;;;;;;;28.60;94.40;;;;;;5108657;28;19943;-58
2022/08/05 00:11:05;;;;;;;;;;;28.60;94.60;;;;;;5126805;28;19912;-60
2022/08/05 00:13:35;;;;;;;;;;;28.60;94.60;;;;;;5126502;28;19911;-58
2022/08/05 00:16:01;;;;;;;;;;;28.50;94.60;;;;;;5108491;28;19949;-61
2022/08/05 00:18:28;;;;;;;;;;;28.60;94.70;;;;;;5126918;28;20192;-60
2022/08/05 00:20:54;;;;;;;;;;;28.60;94.80;;;;;;5126338;28;20268;-63
2022/08/05 00:23:21;;;;;;;;;;;28.50;94.90;;;;;;5108472;28;19953;-61
2022/08/05 00:25:47;;;;;;;;;;;28.50;94.80;;;;;;5127081;28;19911;-59
2022/08/05 00:28:14;;;;;;;;;;;28.50;94.90;;;;;;5108404;28;19911;-61
2022/08/05 00:30:40;;;;;;;;;;;28.50;95.00;;;;;;5126806;28;19930;-62
2022/08/05 00:33:07;;;;;;;;;;;28.50;95.00;;;;;;5126380;28;19912;-58
2022/08/05 00:35:33;;;;;;;;;;;28.40;94.80;;;;;;5126815;28;19908;-60
2022/08/05 00:37:59;;;;;;;;;;;28.40;94.80;;;;;;5126313;28;20219;-60
2022/08/05 00:40:27;;;;;;;;;;;28.40;94.60;;;;;;5126600;28;19908;-62
2022/08/05 00:42:53;;;;;;;;;;;28.40;94.60;;;;;;5126478;28;20219;-60
2022/08/05 00:45:20;;;;;;;;;;;28.40;94.60;;;;;;5126345;28;19907;-58
2022/08/05 00:47:46;;;;;;;;;;;28.30;94.60;;;;;;5108044;28;19919;-61
2022/08/05 00:50:12;;;;;;;;;;;28.30;94.50;;;;;;5126184;28;19914;-58
2022/08/05 00:52:38;;;;;;;;;;;28.30;94.50;;;;;;5125927;28;19919;-60
2022/08/05 00:55:04;;;;;;;;;;;28.30;94.50;;;;;;5126320;28;19923;-60
2022/08/05 00:57:31;;;;;;;;;;;28.30;94.40;;;;;;5126086;28;19947;-57
2022/08/05 00:59:57;;;;;;;;;;;28.20;94.40;;;;;;5126367;28;20258;-59
2022/08/05 01:02:23;;;;;;;;;;;28.20;94.50;;;;;;5125820;28;19907;-59
2022/08/05 01:04:49;;;;;;;;;;;28.20;94.40;;;;;;5126050;28;19904;-59
2022/08/05 01:07:15;;;;;;;;;;;28.20;94.50;;;;;;5125803;28;19955;-58
2022/08/05 01:09:42;;;;;;;;;;;28.20;94.40;;;;;;5125745;28;19907;-59
2022/08/05 01:12:13;;;;;;;;;;;28.20;94.40;;;;;;5126099;28;20255;-58
2022/08/05 01:14:45;;;;;;;;;;;28.20;94.30;;;;;;5125778;28;19930;-59
2022/08/05 01:17:13;;;;;;;;;;;28.20;94.30;;;;;;5125755;28;20096;-63
2022/08/05 01:19:39;;;;;;;;;;;28.20;94.40;;;;;;5125438;28;19916;-61
2022/08/05 01:22:14;;;;;;;;;;;28.20;94.40;;;;;;5124721;28;19912;-59
2022/08/05 01:24:46;;;;;;;;;;;28.10;94.30;;;;;;5125731;28;19908;-62
2022/08/05 01:27:31;;;;;;;;;;;28.20;94.30;;;;;;5124804;28;20216;-58
2022/08/05 01:30:00;;;;;;;;;;;28.20;94.40;;;;;;5125602;28;19907;-57
2022/08/05 01:32:27;;;;;;;;;;;28.10;94.30;;;;;;5125401;28;20189;-60
2022/08/05 01:34:56;;;;;;;;;;;28.10;94.40;;;;;;5125271;28;20073;-59
2022/08/05 01:37:24;;;;;;;;;;;28.10;94.40;;;;;;5125687;28;19939;-57
2022/08/05 01:39:53;;;;;;;;;;;28.10;94.30;;;;;;5125665;28;19947;-58
2022/08/05 01:42:20;;;;;;;;;;;28.10;94.40;;;;;;5123895;28;19912;-49
2022/08/05 01:44:47;;;;;;;;;;;28.10;94.40;;;;;;5114348;28;20203;-51
2022/08/05 01:47:18;;;;;;;;;;;28.20;94.50;;;;;;5104784;28;20142;-52
2022/08/05 01:49:46;;;;;;;;;;;28.10;94.50;;;;;;5103116;28;19904;-48
2022/08/05 01:52:13;;;;;;;;;;;28.00;94.50;;;;;;5103112;28;19912;-54
2022/08/05 01:54:45;;;;;;;;;;;28.00;94.70;;;;;;5105230;28;19915;-51
2022/08/05 01:57:12;;;;;;;;;;;28.00;94.60;;;;;;5104666;28;19999;-53
2022/08/05 01:59:39;;;;;;;;;;;27.90;94.60;;;;;;5124569;28;19931;-53
2022/08/05 02:02:08;;;;;;;;;;;27.90;94.60;;;;;;5124779;28;19973;-58
2022/08/05 02:04:36;;;;;;;;;;;27.90;94.80;;;;;;5124706;28;19921;-52
2022/08/05 02:07:02;;;;;;;;;;;27.90;94.70;;;;;;5106549;28;19953;-49
2022/08/05 02:09:28;;;;;;;;;;;27.90;94.70;;;;;;5124578;28;19911;-49
2022/08/05 02:12:00;;;;;;;;;;;27.90;94.80;;;;;;5124747;28;19927;-55
2022/08/05 02:14:28;;;;;;;;;;;27.90;94.80;;;;;;5123994;28;19969;-51
2022/08/05 02:16:59;;;;;;;;;;;27.80;95.00;;;;;;5122011;28;19919;-52
2022/08/05 02:19:42;;;;;;;;;;;27.80;94.70;;;;;;5121216;28;19907;-53
2022/08/05 02:22:11;;;;;;;;;;;27.80;94.70;;;;;;5112964;28;19987;-51
2022/08/05 02:24:40;;;;;;;;;;;27.80;94.70;;;;;;5122055;28;19908;-54
2022/08/05 02:27:08;;;;;;;;;;;27.80;94.70;;;;;;5124506;28;19983;-50
2022/08/05 02:29:35;;;;;;;;;;;27.80;94.70;;;;;;5124244;28;20048;-51
2022/08/05 02:32:03;;;;;;;;;;;27.80;94.80;;;;;;5124397;28;20203;-54
2022/08/05 02:34:30;;;;;;;;;;;27.80;94.70;;;;;;5128286;28;19912;-52
2022/08/05 02:36:58;;;;;;;;;;;27.80;94.70;;;;;;5128586;28;20004;-51
2022/08/05 02:39:33;;;;;;;;;;;27.80;94.60;;;;;;5128774;28;20131;-54
2022/08/05 02:42:00;;;;;;;;;;;27.80;94.60;;;;;;5110605;28;19911;-52
2022/08/05 02:44:27;;;;;;;;;;;27.80;94.60;;;;;;5128232;28;19907;-53
2022/08/05 02:46:55;;;;;;;;;;;27.80;94.50;;;;;;5129025;28;19912;-53
2022/08/05 02:49:22;;;;;;;;;;;27.80;94.50;;;;;;5128486;28;20206;-52
2022/08/05 02:51:49;;;;;;;;;;;27.70;94.40;;;;;;5128423;28;19912;-55
2022/08/05 02:54:15;;;;;;;;;;;27.70;94.40;;;;;;5109970;28;19926;-55
2022/08/05 02:56:42;;;;;;;;;;;27.70;94.50;;;;;;5128295;28;19947;-50
2022/08/05 02:59:12;;;;;;;;;;;27.70;94.50;;;;;;5128016;28;20258;-53
2022/08/05 03:01:40;;;;;;;;;;;27.60;94.50;;;;;;5127492;28;19991;-55
2022/08/05 03:04:08;;;;;;;;;;;27.60;94.50;;;;;;5127640;28;19911;-52
2022/08/05 03:06:34;;;;;;;;;;;27.60;94.60;;;;;;5127561;28;19908;-54
2022/08/05 03:09:01;;;;;;;;;;;27.60;94.50;;;;;;5128042;28;20003;-52
2022/08/05 03:11:27;;;;;;;;;;;27.60;94.50;;;;;;5128006;28;19904;-52
2022/08/05 03:13:53;;;;;;;;;;;27.60;94.50;;;;;;5124611;28;19984;-52
2022/08/05 03:16:19;;;;;;;;;;;27.60;94.50;;;;;;5097151;28;20240;-51
2022/08/05 03:18:46;;;;;;;;;;;27.60;94.40;;;;;;5107181;28;20081;-51
2022/08/05 03:21:12;;;;;;;;;;;27.50;94.50;;;;;;5106926;28;19916;-52
2022/08/05 03:23:41;;;;;;;;;;;27.60;94.50;;;;;;5106979;28;20234;-52
2022/08/05 03:26:07;;;;;;;;;;;27.50;94.50;;;;;;5107490;28;19975;-55
2022/08/05 03:28:33;;;;;;;;;;;27.50;94.50;;;;;;5106973;28;19919;-52
2022/08/05 03:31:00;;;;;;;;;;;27.50;94.50;;;;;;5107459;28;19970;-54
2022/08/05 03:33:27;;;;;;;;;;;27.50;94.50;;;;;;5112667;28;20138;-52
2022/08/05 03:35:55;;;;;;;;;;;27.50;94.50;;;;;;5112858;28;19908;-53
2022/08/05 03:38:22;;;;;;;;;;;27.50;94.50;;;;;;5106817;28;19908;-52
2022/08/05 03:40:49;;;;;;;;;;;27.50;94.50;;;;;;5107252;28;19915;-52
2022/08/05 03:43:15;;;;;;;;;;;27.50;94.60;;;;;;5106837;28;19912;-53
2022/08/05 03:45:44;;;;;;;;;;;27.50;94.60;;;;;;5106190;28;20195;-56
2022/08/05 03:48:11;;;;;;;;;;;27.50;94.70;;;;;;5106816;28;19912;-52
2022/08/05 03:50:40;;;;;;;;;;;27.40;94.70;;;;;;5107005;28;19918;-53
2022/08/05 03:53:20;;;;;;;;;;;27.40;94.70;;;;;;5105693;28;19916;-60
2022/08/05 03:55:52;;;;;;;;;;;27.40;94.70;;;;;;5107163;28;20212;-59
2022/08/05 03:58:21;;;;;;;;;;;27.40;94.70;;;;;;5106980;28;20251;-61
2022/08/05 04:00:48;;;;;;;;;;;27.40;94.70;;;;;;5107236;28;19947;-59
2022/08/05 04:03:16;;;;;;;;;;;27.40;94.70;;;;;;5106456;28;19930;-59
2022/08/05 04:05:43;;;;;;;;;;;27.40;94.70;;;;;;5107046;28;19988;-60
2022/08/05 04:08:10;;;;;;;;;;;27.40;94.70;;;;;;5106807;28;19979;-60
2022/08/05 04:10:36;;;;;;;;;;;27.40;94.60;;;;;;5106573;28;20199;-59
2022/08/05 04:13:03;;;;;;;;;;;27.40;94.50;;;;;;5106700;28;19912;-59
2022/08/05 04:15:29;;;;;;;;;;;27.50;94.50;;;;;;5106853;28;19938;-59
2022/08/05 04:17:55;;;;;;;;;;;27.50;94.40;;;;;;5088497;28;19912;-59
2022/08/05 04:20:22;;;;;;;;;;;27.40;94.30;;;;;;5106607;28;19923;-59
2022/08/05 04:22:48;;;;;;;;;;;27.40;94.30;;;;;;5088497;28;19987;-59
2022/08/05 04:25:15;;;;;;;;;;;27.40;94.30;;;;;;5106545;28;19908;-59
2022/08/05 04:27:41;;;;;;;;;;;27.40;94.20;;;;;;5106549;28;19920;-53
2022/08/05 04:30:08;;;;;;;;;;;27.40;94.30;;;;;;5122065;28;19945;-54
2022/08/05 04:32:35;;;;;;;;;;;27.40;94.30;;;;;;5126598;28;19922;-57
2022/08/05 04:35:01;;;;;;;;;;;27.40;94.30;;;;;;5126704;28;19953;-57
2022/08/05 04:37:27;;;;;;;;;;;27.40;94.30;;;;;;5126621;28;20251;-58
2022/08/05 04:39:53;;;;;;;;;;;27.40;94.30;;;;;;5126844;28;19908;-57
2022/08/05 04:42:19;;;;;;;;;;;27.40;94.30;;;;;;5126386;28;19982;-60
2022/08/05 04:44:45;;;;;;;;;;;27.40;94.40;;;;;;5126594;28;19971;-55
2022/08/05 04:47:11;;;;;;;;;;;27.40;94.50;;;;;;5126366;28;19958;-56
2022/08/05 04:49:38;;;;;;;;;;;27.40;94.50;;;;;;5126281;28;19907;-61
2022/08/05 04:52:04;;;;;;;;;;;27.40;94.40;;;;;;5126377;28;19919;-56
2022/08/05 04:54:31;;;;;;;;;;;27.40;94.50;;;;;;5126752;28;19918;-57
2022/08/05 04:56:57;;;;;;;;;;;27.30;94.50;;;;;;5126108;28;20172;-56
2022/08/05 04:59:23;;;;;;;;;;;27.30;94.50;;;;;;5126122;28;20267;-56
2022/08/05 05:01:49;;;;;;;;;;;27.30;94.60;;;;;;5126149;28;19912;-57
2022/08/05 05:04:15;;;;;;;;;;;27.30;94.60;;;;;;5126042;28;19931;-56
2022/08/05 05:06:42;;;;;;;;;;;27.30;94.60;;;;;;5125972;28;19912;-56
2022/08/05 05:09:09;;;;;;;;;;;27.20;94.60;;;;;;5125982;28;19943;-56
2022/08/05 05:11:35;;;;;;;;;;;27.30;94.70;;;;;;5126375;28;19914;-57
2022/08/05 05:14:02;;;;;;;;;;;27.20;94.70;;;;;;5126162;28;19968;-55
2022/08/05 05:16:28;;;;;;;;;;;27.30;94.60;;;;;;5126302;28;19908;-55
2022/08/05 05:18:54;;;;;;;;;;;27.30;94.60;;;;;;5125518;28;19908;-58
2022/08/05 05:21:20;;;;;;;;;;;27.30;94.70;;;;;;5125713;28;19922;-58
2022/08/05 05:23:47;;;;;;;;;;;27.30;94.70;;;;;;5125776;28;20200;-57
2022/08/05 05:26:13;;;;;;;;;;;27.20;94.60;;;;;;5126224;28;19908;-56
2022/08/05 05:28:39;;;;;;;;;;;27.20;94.60;;;;;;5125431;28;20111;-55
2022/08/05 05:31:05;;;;;;;;;;;27.20;94.60;;;;;;5125488;28;19904;-57
2022/08/05 05:33:31;;;;;;;;;;;27.30;94.70;;;;;;5125482;28;19922;-55
2022/08/05 05:35:57;;;;;;;;;;;27.20;94.70;;;;;;5125784;28;20225;-57
2022/08/05 05:38:23;;;;;;;;;;;27.20;94.70;;;;;;5125735;28;20104;-55
2022/08/05 05:40:50;;;;;;;;;;;27.30;94.70;;;;;;5125706;28;19964;-55
2022/08/05 05:43:16;;;;;;;;;;;27.20;94.70;;;;;;5125305;28;19914;-56
2022/08/05 05:45:42;;;;;;;;;;;27.20;94.70;;;;;;5125630;28;19908;-55
2022/08/05 05:48:09;;;;;;;;;;;27.20;94.60;;;;;;5125282;28;19975;-57
2022/08/05 05:50:35;;;;;;;;;;;27.20;94.60;;;;;;5125320;28;20114;-55
2022/08/05 05:53:01;;;;;;;;;;;27.20;94.60;;;;;;5125187;28;19957;-56
2022/08/05 05:55:28;;;;;;;;;;;27.20;94.50;;;;;;5125349;28;19903;-55
2022/08/05 05:57:54;;;;;;;;;;;27.20;94.50;;;;;;5125056;28;19919;-58
2022/08/05 06:00:20;;;;;;;;;;;27.30;94.50;;;;;;5107025;28;20108;-54
2022/08/05 06:02:46;;;;;;;;;;;27.20;94.40;;;;;;5125049;28;19912;-58
2022/08/05 06:05:13;;;;;;;;;;;27.20;94.40;;;;;;5125035;28;19912;-58
2022/08/05 06:07:40;;;;;;;;;;;27.20;94.40;;;;;;5124609;28;20004;-56
2022/08/05 06:10:07;;;;;;;;;;;27.20;94.40;;;;;;5125242;28;19907;-58
2022/08/05 06:12:33;;;;;;;;;;;27.20;94.40;;;;;;5124932;28;19908;-57
2022/08/05 06:15:00;;;;;;;;;;;27.20;94.40;;;;;;5124874;28;19908;-55
2022/08/05 06:17:26;;;;;;;;;;;27.20;94.30;;;;;;5124820;28;19927;-54
2022/08/05 06:19:52;;;;;;;;;;;27.20;94.30;;;;;;5124752;28;19928;-56
2022/08/05 06:22:23;;;;;;;;;;;27.20;94.30;;;;;;5124545;28;19912;-55
2022/08/05 06:24:49;;;;;;;;;;;27.20;94.40;;;;;;5124845;28;19908;-55
2022/08/05 06:27:15;;;;;;;;;;;27.20;94.40;;;;;;5124717;28;19946;-56
2022/08/05 06:29:41;;;;;;;;;;;27.20;94.60;;;;;;5124891;28;20143;-56
2022/08/05 06:32:08;;;;;;;;;;;27.20;94.30;;;;;;5124694;28;19912;-58
2022/08/05 06:34:34;;;;;;;;;;;27.20;94.30;;;;;;5124748;28;19918;-57
2022/08/05 06:37:00;;;;;;;;;;;27.20;94.50;;;;;;5124602;28;20127;-52
2022/08/05 06:39:26;;;;;;;;;;;27.10;94.20;;;;;;5124813;28;19907;-54
2022/08/05 06:41:52;;;;;;;;;;;27.20;94.30;;;;;;5124763;28;19919;-58
2022/08/05 06:44:18;;;;;;;;;;;27.20;94.30;;;;;;5124439;28;19908;-58
2022/08/05 06:46:45;;;;;;;;;;;27.20;94.40;;;;;;5124500;28;20167;-60
2022/08/05 06:49:11;;;;;;;;;;;27.10;94.30;;;;;;5124400;28;19907;-62
2022/08/05 06:51:37;;;;;;;;;;;27.10;94.30;;;;;;5125026;28;19978;-61
2022/08/05 06:54:03;;;;;;;;;;;27.10;94.30;;;;;;5124689;28;19923;-61
2022/08/05 06:56:30;;;;;;;;;;;27.10;94.30;;;;;;5124965;28;19969;-54
2022/08/05 06:58:56;;;;;;;;;;;27.10;94.30;;;;;;5124401;28;20165;-58
2022/08/05 07:01:23;;;;;;;;;;;27.10;94.30;;;;;;5124859;28;19978;-54
2022/08/05 07:03:49;;;;;;;;;;;27.10;94.40;;;;;;5124735;28;19942;-55
2022/08/05 07:06:16;;;;;;;;;;;27.10;94.40;;;;;;5124879;28;19923;-53
2022/08/05 07:08:43;;;;;;;;;;;27.00;94.30;;;;;;5124275;28;20196;-58
2022/08/05 07:11:09;;;;;;;;;;;27.00;94.40;;;;;;5124688;28;19914;-56
2022/08/05 07:19:05;;;;;;;;;;;27.00;94.40;;;;;;5124313;28;19973;-55
2022/08/05 07:21:31;;;;;;;;;;;27.00;94.50;;;;;;5127948;28;19923;-56
2022/08/05 07:23:57;;;;;;;;;;;27.00;94.60;;;;;;5128080;28;20196;-56
2022/08/05 07:26:23;;;;;;;;;;;27.00;94.60;;;;;;5128409;28;19904;-56
2022/08/05 07:28:49;;;;;;;;;;;26.90;94.60;;;;;;5128172;28;19978;-55
2022/08/05 07:31:16;;;;;;;;;;;27.00;94.60;;;;;;5128466;28;20077;-60
2022/08/05 07:33:42;;;;;;;;;;;27.00;94.60;;;;;;5127674;28;19982;-59
2022/08/05 07:36:08;;;;;;;;;;;27.00;94.60;;;;;;5128165;28;19908;-54
2022/08/05 07:38:35;;;;;;;;;;;27.00;94.70;;;;;;5127930;28;19915;-54
2022/08/05 07:41:05;;;;;;;;;;;27.00;94.70;;;;;;5128003;28;19915;-61
2022/08/05 07:43:32;;;;;;;;;;;27.00;94.80;;;;;;5127759;28;19916;-59
2022/08/05 07:45:58;;;;;;;;;;;26.90;95.00;;;;;;5128193;28;20199;-54
2022/08/05 07:48:24;;;;;;;;;;;26.90;94.90;;;;;;5127340;28;19934;-54
2022/08/05 07:50:50;;;;;;;;;;;26.90;95.00;;;;;;5128010;28;19910;-54
2022/08/05 07:53:17;;;;;;;;;;;26.90;94.90;;;;;;5127469;28;19925;-55
2022/08/05 07:55:43;;;;;;;;;;;26.90;94.80;;;;;;5127652;28;19930;-53
2022/08/05 07:58:09;;;;;;;;;;;26.90;95.20;;;;;;5127763;28;19919;-56
2022/08/05 08:00:35;;;;;;;;;;;26.90;94.80;;;;;;5127175;28;19908;-56
2022/08/05 08:03:02;;;;;;;;;;;26.90;94.80;;;;;;5127361;28;19930;-57
2022/08/05 08:05:28;;;;;;;;;;;26.90;94.70;;;;;;5127380;28;19908;-52
2022/08/05 08:07:54;;;;;;;;;;;26.80;94.90;;;;;;5127413;28;20196;-52
2022/08/05 08:10:21;;;;;;;;;;;26.80;94.50;;;;;;5127200;28;20230;-55
2022/08/05 08:12:47;;;;;;;;;;;26.80;94.50;;;;;;5126922;28;19953;-55
2022/08/05 08:15:14;;;;;;;;;;;26.80;94.40;;;;;;5127332;28;20206;-57
2022/08/05 08:17:40;;;;;;;;;;;26.80;94.40;;;;;;5126883;28;20207;-55
2022/08/05 08:20:06;;;;;;;;;;;26.80;94.40;;;;;;5126842;28;20172;-54
2022/08/05 08:22:32;;;;;;;;;;;26.80;94.40;;;;;;5126863;28;19912;-55
2022/08/05 08:24:59;;;;;;;;;;;26.80;94.30;;;;;;5126965;28;19914;-60
2022/08/05 08:27:25;;;;;;;;;;;26.80;94.20;;;;;;5126679;28;19907;-62
2022/08/05 08:29:51;;;;;;;;;;;26.70;94.20;;;;;;5126733;28;19908;-54
2022/08/05 08:32:17;;;;;;;;;;;26.70;94.10;;;;;;5125659;28;20201;-54
2022/08/05 08:34:43;;;;;;;;;;;26.70;94.10;;;;;;5126566;28;19918;-60
2022/08/05 08:37:09;;;;;;;;;;;26.70;94.00;;;;;;5126585;28;19918;-55
2022/08/05 08:39:36;;;;;;;;;;;26.70;94.00;;;;;;5126597;28;19904;-54
2022/08/05 08:42:02;;;;;;;;;;;26.70;94.00;;;;;;5126457;28;19912;-55
2022/08/05 08:44:29;;;;;;;;;;;26.70;94.00;;;;;;5126304;28;20208;-55
2022/08/05 08:46:55;;;;;;;;;;;26.60;94.00;;;;;;5126417;28;19912;-56
2022/08/05 08:49:22;;;;;;;;;;;26.70;94.00;;;;;;5126437;28;19908;-55
2022/08/05 08:52:00;;;;;;;;;;;26.60;94.10;;;;;;5126392;28;19935;-54
2022/08/05 08:54:26;;;;;;;;;;;26.60;94.10;;;;;;5126187;28;19915;-56
2022/08/05 08:56:53;;;;;;;;;;;26.60;94.10;;;;;;5126166;28;19943;-54
2022/08/05 08:59:19;;;;;;;;;;;26.60;94.10;;;;;;5126247;28;19969;-54
2022/08/05 09:01:45;;;;;;;;;;;26.60;94.10;;;;;;5126187;28;20148;-56
2022/08/05 09:04:12;;;;;;;;;;;26.60;94.10;;;;;;5126008;28;19904;-62
2022/08/05 09:06:38;;;;;;;;;;;26.60;94.20;;;;;;5126260;28;19912;-53
2022/08/05 09:09:05;;;;;;;;;;;26.60;94.30;;;;;;5126029;28;20104;-52
2022/08/05 09:11:35;;;;;;;;;;;26.60;94.20;;;;;;5126301;28;19908;-58
2022/08/05 09:14:02;;;;;;;;;;;26.60;94.30;;;;;;5125803;28;19923;-56
2022/08/05 09:16:28;;;;;;;;;;;26.60;94.30;;;;;;5126308;28;19938;-51
2022/08/05 09:18:54;;;;;;;;;;;26.50;94.30;;;;;;5125717;28;19954;-60
2022/08/05 09:21:27;;;;;;;;;;;26.50;94.40;;;;;;5125491;28;20063;-56
2022/08/05 09:24:11;;;;;;;;;;;26.50;94.40;;;;;;5125980;28;19916;-55
2022/08/05 09:26:38;;;;;;;;;;;26.50;94.50;;;;;;5126122;28;19930;-54
2022/08/05 09:29:05;;;;;;;;;;;26.50;94.60;;;;;;5125658;28;19912;-53
2022/08/05 09:31:32;;;;;;;;;;;26.50;94.60;;;;;;5125929;28;19915;-53
2022/08/05 09:33:58;;;;;;;;;;;26.40;94.60;;;;;;5125520;28;19924;-57
2022/08/05 09:36:37;;;;;;;;;;;26.50;94.60;;;;;;5125899;28;20184;-61
2022/08/05 09:39:04;;;;;;;;;;;26.40;94.70;;;;;;5125336;28;20192;-57
2022/08/05 09:41:31;;;;;;;;;;;26.40;94.90;;;;;;5125837;28;19908;-56
2022/08/05 09:43:57;;;;;;;;;;;26.40;95.00;;;;;;5124654;28;19954;-58
2022/08/05 09:46:23;;;;;;;;;;;26.40;95.20;;;;;;5125715;28;19978;-56
2022/08/05 09:48:51;;;;;;;;;;;26.40;95.40;;;;;;5125253;28;20018;-58
2022/08/05 09:51:17;;;;;;;;;;;26.40;95.20;;;;;;5125572;28;19904;-58
2022/08/05 09:53:50;;;;;;;;;;;26.40;95.40;;;;;;5125004;28;19915;-60
2022/08/05 09:56:26;;;;;;;;;;;26.40;95.40;;;;;;5125708;28;19908;-58
2022/08/05 09:58:56;;;;;;;;;;;26.30;95.40;;;;;;5125029;28;19943;-59
2022/08/05 10:01:23;;;;;;;;;;;26.30;95.40;;;;;;5125506;28;19935;-57
2022/08/05 10:03:58;;;;;;;;;;;26.40;95.40;;;;;;5124960;28;19912;-55
2022/08/05 10:06:26;;;;;;;;;;;26.30;95.30;;;;;;5125313;28;19949;-58
2022/08/05 10:08:52;;;;;;;;;;;26.30;95.30;;;;;;5124831;28;19919;-57
2022/08/05 10:11:18;;;;;;;;;;;26.30;95.20;;;;;;5125429;28;20260;-56
2022/08/05 10:13:44;;;;;;;;;;;26.30;95.20;;;;;;5124965;28;19990;-60
2022/08/05 10:16:30;;;;;;;;;;;26.30;95.20;;;;;;5125302;28;19907;-58
2022/08/05 10:18:56;;;;;;;;;;;26.30;95.20;;;;;;5124818;28;19927;-62
2022/08/05 10:21:22;;;;;;;;;;;26.30;95.10;;;;;;5124754;28;20111;-56
2022/08/05 10:23:49;;;;;;;;;;;26.30;95.10;;;;;;5124742;28;19912;-55
2022/08/05 10:26:15;;;;;;;;;;;26.30;95.10;;;;;;5125040;28;19903;-55
2022/08/05 10:28:42;;;;;;;;;;;26.30;95.10;;;;;;5124834;28;19912;-56
2022/08/05 10:31:11;;;;;;;;;;;26.20;95.00;;;;;;5124696;28;20200;-56
2022/08/05 10:33:37;;;;;;;;;;;26.30;95.10;;;;;;5124428;28;20242;-62
2022/08/05 10:36:04;;;;;;;;;;;26.20;95.10;;;;;;5125033;28;19907;-55
2022/08/05 10:38:30;;;;;;;;;;;26.20;95.10;;;;;;5106567;28;20257;-56
2022/08/05 10:40:57;;;;;;;;;;;26.20;95.00;;;;;;5125025;28;19907;-57
2022/08/05 10:43:34;;;;;;;;;;;26.20;95.00;;;;;;5124347;28;19916;-56
2022/08/05 10:46:03;;;;;;;;;;;26.20;95.00;;;;;;5124538;28;19926;-58
2022/08/05 10:48:34;;;;;;;;;;;26.20;95.00;;;;;;5123907;28;19912;-56
2022/08/05 10:51:02;;;;;;;;;;;26.20;95.00;;;;;;5124891;28;19908;-58
2022/08/05 10:53:38;;;;;;;;;;;26.30;95.10;;;;;;5124793;28;19912;-59
2022/08/05 10:56:06;;;;;;;;;;;26.20;95.10;;;;;;5128919;28;20188;-55
2022/08/05 10:58:33;;;;;;;;;;;26.20;95.10;;;;;;5128396;28;19954;-55
2022/08/05 11:00:59;;;;;;;;;;;26.30;95.20;;;;;;5128774;28;19904;-51
2022/08/05 11:03:26;;;;;;;;;;;26.20;95.20;;;;;;5128489;28;19926;-55
2022/08/05 11:06:11;;;;;;;;;;;26.20;95.20;;;;;;5128728;28;19930;-51
2022/08/05 11:08:37;;;;;;;;;;;26.30;95.40;;;;;;5128323;28;20134;-57
2022/08/05 11:11:22;;;;;;;;;;;26.20;95.50;;;;;;5128119;28;19908;-61
2022/08/05 11:13:48;;;;;;;;;;;26.20;95.50;;;;;;5128134;28;19923;-57
2022/08/05 11:16:21;;;;;;;;;;;26.20;95.50;;;;;;5128131;28;19904;-57
2022/08/05 11:18:48;;;;;;;;;;;26.20;95.60;;;;;;5128122;28;19919;-54
2022/08/05 11:21:32;;;;;;;;;;;26.20;95.60;;;;;;5127913;28;19991;-56
2022/08/05 11:24:06;;;;;;;;;;;26.20;95.50;;;;;;5128088;28;19912;-59
2022/08/05 11:26:32;;;;;;;;;;;26.20;95.60;;;;;;5128463;28;19911;-60
2022/08/05 11:29:00;;;;;;;;;;;26.20;95.60;;;;;;5127934;28;20119;-60
2022/08/05 11:31:30;;;;;;;;;;;26.20;95.60;;;;;;5128219;28;19979;-60
2022/08/05 11:34:01;;;;;;;;;;;26.20;95.60;;;;;;5127740;28;19994;-57
2022/08/05 11:36:45;;;;;;;;;;;26.20;95.50;;;;;;5128201;28;19904;-59
2022/08/05 11:39:12;;;;;;;;;;;26.20;95.60;;;;;;5127670;28;19919;-58
2022/08/05 11:41:40;;;;;;;;;;;26.30;95.50;;;;;;5127586;28;19953;-56
2022/08/05 11:44:11;;;;;;;;;;;26.30;95.50;;;;;;5127495;28;20164;-60
2022/08/05 11:46:52;;;;;;;;;;;26.30;95.50;;;;;;5127866;28;19907;-57
2022/08/05 11:49:21;;;;;;;;;;;26.30;95.40;;;;;;5127538;28;19947;-59
2022/08/05 11:51:48;;;;;;;;;;;26.30;95.40;;;;;;5127478;28;19912;-60
2022/08/05 11:54:26;;;;;;;;;;;26.30;95.40;;;;;;5127264;28;19971;-56
2022/08/05 11:56:53;;;;;;;;;;;26.30;95.40;;;;;;5127222;28;19949;-56
2022/08/05 11:59:20;;;;;;;;;;;26.40;95.40;;;;;;5127277;28;19903;-55
2022/08/05 12:01:55;;;;;;;;;;;26.40;95.40;;;;;;5127326;28;19912;-55
2022/08/05 12:04:22;;;;;;;;;;;26.50;95.40;;;;;;5127083;28;19914;-60
2022/08/05 12:06:48;;;;;;;;;;;26.50;95.50;;;;;;5126630;28;20242;-58
2022/08/05 12:09:16;;;;;;;;;;;26.60;95.50;;;;;;5127052;28;20195;-52
2022/08/05 12:11:46;;;;;;;;;;;26.60;95.50;;;;;;5127052;28;20207;-54
2022/08/05 12:14:12;;;;;;;;;;;26.60;95.80;;;;;;5127073;28;19912;-54
2022/08/05 12:16:39;;;;;;;;;;;26.60;95.50;;;;;;5127167;28;19911;-57
2022/08/05 12:19:06;;;;;;;;;;;26.70;95.50;;;;;;5126868;28;19908;-54
2022/08/05 12:21:33;;;;;;;;;;;26.70;95.40;;;;;;5127034;28;19988;-59
2022/08/05 12:24:02;;;;;;;;;;;26.80;95.40;;;;;;5127090;28;19979;-56
2022/08/05 12:26:36;;;;;;;;;;;26.80;95.50;;;;;;5127075;28;19908;-57
2022/08/05 12:29:04;;;;;;;;;;;26.80;95.50;;;;;;5126815;28;19930;-55
2022/08/05 12:31:33;;;;;;;;;;;26.90;95.40;;;;;;5127061;28;19915;-56
2022/08/05 12:34:00;;;;;;;;;;;26.90;95.40;;;;;;5126757;28;19974;-55
2022/08/05 12:36:26;;;;;;;;;;;26.90;95.40;;;;;;5127077;28;19908;-57
2022/08/05 12:38:53;;;;;;;;;;;26.90;95.30;;;;;;5126529;28;19949;-55
2022/08/05 12:41:21;;;;;;;;;;;27.00;95.30;;;;;;5127058;28;20073;-57
2022/08/05 12:43:54;;;;;;;;;;;27.00;95.20;;;;;;5126479;28;19918;-58
2022/08/05 12:46:24;;;;;;;;;;;27.00;95.20;;;;;;5126816;28;19908;-59
2022/08/05 12:49:00;;;;;;;;;;;27.10;95.10;;;;;;5126407;28;20196;-54
2022/08/05 12:51:26;;;;;;;;;;;27.10;95.20;;;;;;5126679;28;19908;-55
2022/08/05 12:54:02;;;;;;;;;;;27.10;95.10;;;;;;5126149;28;19916;-57
2022/08/05 12:56:29;;;;;;;;;;;27.10;95.00;;;;;;5126761;28;19908;-60
2022/08/05 12:59:15;;;;;;;;;;;27.10;95.00;;;;;;5126105;28;20200;-56
2022/08/05 13:01:42;;;;;;;;;;;27.10;94.90;;;;;;5126325;28;20085;-53
2022/08/05 13:04:09;;;;;;;;;;;27.20;94.70;;;;;;5126036;28;19915;-61
2022/08/05 13:06:42;;;;;;;;;;;27.20;94.60;;;;;;5126641;28;20191;-58
2022/08/05 13:09:09;;;;;;;;;;;27.20;94.60;;;;;;5125913;28;19915;-58
2022/08/05 13:11:37;;;;;;;;;;;27.20;94.50;;;;;;5126362;28;20159;-58
2022/08/05 13:14:08;;;;;;;;;;;27.30;94.70;;;;;;5125765;28;19923;-57
2022/08/05 13:16:43;;;;;;;;;;;27.30;94.50;;;;;;5126441;28;19907;-61
2022/08/05 13:19:11;;;;;;;;;;;27.30;94.80;;;;;;5125868;28;19912;-61
2022/08/05 13:21:37;;;;;;;;;;;27.30;94.70;;;;;;5125715;28;20100;-56
2022/08/05 13:24:04;;;;;;;;;;;27.30;94.60;;;;;;5125826;28;19919;-56
2022/08/05 13:26:30;;;;;;;;;;;27.40;94.60;;;;;;5126093;28;19931;-55
2022/08/05 13:28:57;;;;;;;;;;;27.40;94.60;;;;;;5125774;28;19954;-55
2022/08/05 13:31:23;;;;;;;;;;;27.40;94.70;;;;;;5125955;28;19931;-56
2022/08/05 13:33:49;;;;;;;;;;;27.50;94.60;;;;;;5125284;28;20112;-55
2022/08/05 13:36:15;;;;;;;;;;;27.40;94.60;;;;;;5125387;28;19908;-55
2022/08/05 13:38:41;;;;;;;;;;;27.50;94.60;;;;;;5125455;28;19911;-57
2022/08/05 13:41:07;;;;;;;;;;;27.50;94.50;;;;;;5125823;28;19962;-55
2022/08/05 13:43:33;;;;;;;;;;;27.60;94.40;;;;;;5125471;28;19908;-57
2022/08/05 13:46:00;;;;;;;;;;;27.60;94.30;;;;;;5125441;28;19908;-56
2022/08/05 13:48:26;;;;;;;;;;;27.60;94.40;;;;;;5125368;28;19918;-57
2022/08/05 13:50:52;;;;;;;;;;;27.60;94.40;;;;;;5125812;28;19944;-63
2022/08/05 13:53:18;;;;;;;;;;;27.60;94.00;;;;;;5125109;28;19937;-57
2022/08/05 13:55:44;;;;;;;;;;;27.60;94.00;;;;;;5125483;28;19911;-56
2022/08/05 13:58:10;;;;;;;;;;;27.60;93.80;;;;;;5125393;28;20248;-55
2022/08/05 14:00:37;;;;;;;;;;;27.60;93.70;;;;;;5125441;28;19947;-59
2022/08/05 14:03:03;;;;;;;;;;;27.70;93.60;;;;;;5106745;28;20158;-60
2022/08/05 14:05:29;;;;;;;;;;;27.70;93.80;;;;;;5125359;28;20168;-58
2022/08/05 14:07:55;;;;;;;;;;;27.70;93.60;;;;;;5125162;28;19939;-56
2022/08/05 14:10:22;;;;;;;;;;;27.70;93.50;;;;;;5125197;28;19911;-56
2022/08/05 14:12:48;;;;;;;;;;;27.70;93.60;;;;;;5124794;28;19926;-60
2022/08/05 14:15:14;;;;;;;;;;;27.70;93.70;;;;;;5125200;28;20188;-56
2022/08/05 14:17:40;;;;;;;;;;;27.70;93.70;;;;;;5125321;28;19962;-55
2022/08/05 14:20:07;;;;;;;;;;;27.80;93.70;;;;;;5106585;28;19911;-56
2022/08/05 14:22:34;;;;;;;;;;;27.80;93.70;;;;;;5124784;28;19961;-58
2022/08/05 14:25:00;;;;;;;;;;;27.80;93.60;;;;;;5125045;28;19914;-56